sensor_id;sensor_type;location;lat;lon;timestamp;P1;durP1;ratioP1;P2;durP2;ratioP2
26562;SDS011;14217;50.986;5.826;2023-05-03T00:01:06;6.10;;;1.50;;
26562;SDS011;14217;50.986;5.826;2023-05-03T00:06:09;0.98;;;0.68;;
26562;SDS011;14217;50.986;5.826;2023-05-03T00:11:15;2.35;;;0.65;;
26562;SDS011;14217;50.986;5.826;2023-05-03T00:16:17;1.40;;;0.60;;
26562;SDS011;14217;50.986;5.826;2023-05-03T00:21:20;1.52;;;0.70;;
26562;SDS011;14217;50.986;5.826;2023-05-03T00:26:22;1.13;;;0.82;;
26562;SDS011;14217;50.986;5.826;2023-05-03T00:31:24;3.03;;;1.27;;
26562;SDS011;14217;50.986;5.826;2023-05-03T00:36:26;2.05;;;0.85;;
26562;SDS011;14217;50.986;5.826;2023-05-03T00:41:28;1.92;;;0.88;;
26562;SDS011;14217;50.986;5.826;2023-05-03T00:46:30;0.82;;;0.63;;
26562;SDS011;14217;50.986;5.826;2023-05-03T00:51:33;1.65;;;0.73;;
26562;SDS011;14217;50.986;5.826;2023-05-03T00:56:36;1.13;;;0.57;;
26562;SDS011;14217;50.986;5.826;2023-05-03T01:01:51;1.10;;;0.57;;
26562;SDS011;14217;50.986;5.826;2023-05-03T01:17:21;2.78;;;1.30;;
26562;SDS011;14217;50.986;5.826;2023-05-03T01:27:51;0.88;;;0.70;;
26562;SDS011;14217;50.986;5.826;2023-05-03T01:33:00;2.20;;;1.00;;
26562;SDS011;14217;50.986;5.826;2023-05-03T01:38:04;1.30;;;0.73;;
26562;SDS011;14217;50.986;5.826;2023-05-03T01:43:07;1.02;;;0.50;;
26562;SDS011;14217;50.986;5.826;2023-05-03T01:48:13;2.50;;;0.73;;
26562;SDS011;14217;50.986;5.826;2023-05-03T01:53:17;1.38;;;0.60;;
26562;SDS011;14217;50.986;5.826;2023-05-03T01:58:19;3.08;;;0.77;;
26562;SDS011;14217;50.986;5.826;2023-05-03T02:03:21;0.63;;;0.50;;
26562;SDS011;14217;50.986;5.826;2023-05-03T02:08:23;1.73;;;0.65;;
26562;SDS011;14217;50.986;5.826;2023-05-03T02:13:25;1.17;;;0.77;;
26562;SDS011;14217;50.986;5.826;2023-05-03T02:18:27;8.23;;;0.70;;
26562;SDS011;14217;50.986;5.826;2023-05-03T02:23:31;4.22;;;1.13;;
26562;SDS011;14217;50.986;5.826;2023-05-03T02:28:33;1.77;;;0.68;;
26562;SDS011;14217;50.986;5.826;2023-05-03T02:33:35;1.25;;;0.70;;
26562;SDS011;14217;50.986;5.826;2023-05-03T02:38:37;1.33;;;0.60;;
26562;SDS011;14217;50.986;5.826;2023-05-03T02:43:39;1.60;;;0.68;;
26562;SDS011;14217;50.986;5.826;2023-05-03T02:48:41;1.33;;;0.82;;
26562;SDS011;14217;50.986;5.826;2023-05-03T02:53:43;0.82;;;0.60;;
26562;SDS011;14217;50.986;5.826;2023-05-03T02:58:46;0.75;;;0.60;;
26562;SDS011;14217;50.986;5.826;2023-05-03T03:03:48;1.77;;;0.57;;
26562;SDS011;14217;50.986;5.826;2023-05-03T03:08:50;0.57;;;0.57;;
26562;SDS011;14217;50.986;5.826;2023-05-03T03:13:52;2.10;;;0.90;;
26562;SDS011;14217;50.986;5.826;2023-05-03T03:18:54;0.50;;;0.50;;
26562;SDS011;14217;50.986;5.826;2023-05-03T03:23:56;3.17;;;1.00;;
26562;SDS011;14217;50.986;5.826;2023-05-03T03:28:58;1.33;;;0.73;;
26562;SDS011;14217;50.986;5.826;2023-05-03T03:34:01;1.23;;;0.80;;
26562;SDS011;14217;50.986;5.826;2023-05-03T03:39:04;3.65;;;0.77;;
26562;SDS011;14217;50.986;5.826;2023-05-03T03:44:06;2.08;;;0.70;;
26562;SDS011;14217;50.986;5.826;2023-05-03T03:49:08;2.88;;;0.68;;
26562;SDS011;14217;50.986;5.826;2023-05-03T03:54:10;0.80;;;0.60;;
26562;SDS011;14217;50.986;5.826;2023-05-03T03:59:12;2.00;;;0.80;;
26562;SDS011;14217;50.986;5.826;2023-05-03T04:04:14;3.13;;;0.45;;
26562;SDS011;14217;50.986;5.826;2023-05-03T04:09:16;2.42;;;0.80;;
26562;SDS011;14217;50.986;5.826;2023-05-03T04:14:18;1.02;;;0.68;;
26562;SDS011;14217;50.986;5.826;2023-05-03T04:19:21;1.27;;;0.52;;
26562;SDS011;14217;50.986;5.826;2023-05-03T04:24:24;0.75;;;0.57;;
26562;SDS011;14217;50.986;5.826;2023-05-03T04:29:26;0.60;;;0.47;;
26562;SDS011;14217;50.986;5.826;2023-05-03T04:34:28;4.00;;;0.43;;
26562;SDS011;14217;50.986;5.826;2023-05-03T04:39:31;0.55;;;0.40;;
26562;SDS011;14217;50.986;5.826;2023-05-03T04:44:34;2.67;;;0.80;;
26562;SDS011;14217;50.986;5.826;2023-05-03T04:49:36;2.65;;;0.73;;
26562;SDS011;14217;50.986;5.826;2023-05-03T04:54:39;2.38;;;0.50;;
26562;SDS011;14217;50.986;5.826;2023-05-03T04:59:42;1.17;;;0.50;;
26562;SDS011;14217;50.986;5.826;2023-05-03T05:04:44;0.77;;;0.60;;
26562;SDS011;14217;50.986;5.826;2023-05-03T05:09:46;2.88;;;0.68;;
26562;SDS011;14217;50.986;5.826;2023-05-03T05:14:48;4.18;;;0.98;;
26562;SDS011;14217;50.986;5.826;2023-05-03T05:19:50;1.02;;;0.45;;
26562;SDS011;14217;50.986;5.826;2023-05-03T05:24:52;0.65;;;0.43;;
26562;SDS011;14217;50.986;5.826;2023-05-03T05:29:54;0.98;;;0.88;;
26562;SDS011;14217;50.986;5.826;2023-05-03T05:34:56;0.50;;;0.50;;
26562;SDS011;14217;50.986;5.826;2023-05-03T05:39:58;1.05;;;0.60;;
26562;SDS011;14217;50.986;5.826;2023-05-03T05:45:01;1.65;;;0.82;;
26562;SDS011;14217;50.986;5.826;2023-05-03T05:50:03;1.13;;;0.90;;
26562;SDS011;14217;50.986;5.826;2023-05-03T05:55:19;1.40;;;0.40;;
26562;SDS011;14217;50.986;5.826;2023-05-03T06:00:21;1.08;;;0.65;;
26562;SDS011;14217;50.986;5.826;2023-05-03T06:05:24;1.25;;;0.77;;
26562;SDS011;14217;50.986;5.826;2023-05-03T06:10:26;0.85;;;0.77;;
26562;SDS011;14217;50.986;5.826;2023-05-03T06:15:28;0.98;;;0.93;;
26562;SDS011;14217;50.986;5.826;2023-05-03T06:20:30;1.13;;;0.80;;
26562;SDS011;14217;50.986;5.826;2023-05-03T06:25:33;2.05;;;0.80;;
26562;SDS011;14217;50.986;5.826;2023-05-03T06:30:36;2.58;;;0.95;;
26562;SDS011;14217;50.986;5.826;2023-05-03T06:35:38;1.60;;;0.75;;
26562;SDS011;14217;50.986;5.826;2023-05-03T06:40:41;1.35;;;0.63;;
26562;SDS011;14217;50.986;5.826;2023-05-03T06:45:45;3.80;;;1.02;;
26562;SDS011;14217;50.986;5.826;2023-05-03T06:50:48;12.13;;;1.30;;
26562;SDS011;14217;50.986;5.826;2023-05-03T06:55:51;3.38;;;0.80;;
26562;SDS011;14217;50.986;5.826;2023-05-03T07:00:53;1.35;;;0.85;;
26562;SDS011;14217;50.986;5.826;2023-05-03T07:05:55;5.57;;;0.60;;
26562;SDS011;14217;50.986;5.826;2023-05-03T07:10:57;5.82;;;1.05;;
26562;SDS011;14217;50.986;5.826;2023-05-03T07:15:59;2.05;;;0.60;;
26562;SDS011;14217;50.986;5.826;2023-05-03T07:21:03;0.90;;;0.52;;
26562;SDS011;14217;50.986;5.826;2023-05-03T07:26:09;2.78;;;1.10;;
26562;SDS011;14217;50.986;5.826;2023-05-03T07:31:11;1.73;;;1.02;;
26562;SDS011;14217;50.986;5.826;2023-05-03T07:36:14;4.70;;;1.13;;
26562;SDS011;14217;50.986;5.826;2023-05-03T07:41:16;3.22;;;1.30;;
26562;SDS011;14217;50.986;5.826;2023-05-03T07:46:19;3.67;;;1.27;;
26562;SDS011;14217;50.986;5.826;2023-05-03T07:51:22;4.97;;;1.52;;
26562;SDS011;14217;50.986;5.826;2023-05-03T07:56:25;2.75;;;1.58;;
26562;SDS011;14217;50.986;5.826;2023-05-03T08:01:28;5.22;;;1.30;;
26562;SDS011;14217;50.986;5.826;2023-05-03T08:06:30;4.05;;;1.27;;
26562;SDS011;14217;50.986;5.826;2023-05-03T08:11:33;3.50;;;1.40;;
26562;SDS011;14217;50.986;5.826;2023-05-03T08:16:35;4.88;;;1.58;;
26562;SDS011;14217;50.986;5.826;2023-05-03T08:21:37;2.40;;;0.85;;
26562;SDS011;14217;50.986;5.826;2023-05-03T08:26:39;3.10;;;1.17;;
26562;SDS011;14217;50.986;5.826;2023-05-03T08:31:42;4.55;;;1.75;;
26562;SDS011;14217;50.986;5.826;2023-05-03T08:36:44;3.80;;;1.88;;
26562;SDS011;14217;50.986;5.826;2023-05-03T08:41:46;4.93;;;1.83;;
26562;SDS011;14217;50.986;5.826;2023-05-03T08:46:49;19.02;;;1.92;;
26562;SDS011;14217;50.986;5.826;2023-05-03T08:51:51;3.55;;;1.42;;
26562;SDS011;14217;50.986;5.826;2023-05-03T08:56:54;2.28;;;1.42;;
26562;SDS011;14217;50.986;5.826;2023-05-03T09:01:56;2.17;;;0.98;;
26562;SDS011;14217;50.986;5.826;2023-05-03T09:07:08;1.90;;;0.77;;
26562;SDS011;14217;50.986;5.826;2023-05-03T09:12:11;1.15;;;0.80;;
26562;SDS011;14217;50.986;5.826;2023-05-03T09:17:14;4.18;;;1.42;;
26562;SDS011;14217;50.986;5.826;2023-05-03T09:22:17;5.47;;;0.93;;
26562;SDS011;14217;50.986;5.826;2023-05-03T09:27:20;2.45;;;1.70;;
26562;SDS011;14217;50.986;5.826;2023-05-03T09:32:22;2.42;;;1.17;;
26562;SDS011;14217;50.986;5.826;2023-05-03T09:37:34;2.95;;;1.67;;
26562;SDS011;14217;50.986;5.826;2023-05-03T09:42:39;6.13;;;1.17;;
26562;SDS011;14217;50.986;5.826;2023-05-03T09:47:50;5.82;;;1.70;;
26562;SDS011;14217;50.986;5.826;2023-05-03T09:52:56;2.15;;;1.20;;
26562;SDS011;14217;50.986;5.826;2023-05-03T09:58:02;3.72;;;1.00;;
26562;SDS011;14217;50.986;5.826;2023-05-03T10:03:11;1.58;;;1.00;;
26562;SDS011;14217;50.986;5.826;2023-05-03T10:13:27;1.13;;;1.02;;
26562;SDS011;14217;50.986;5.826;2023-05-03T10:18:31;1.65;;;1.02;;
26562;SDS011;14217;50.986;5.826;2023-05-03T10:23:35;2.60;;;1.08;;
26562;SDS011;14217;50.986;5.826;2023-05-03T10:28:40;1.33;;;0.65;;
26562;SDS011;14217;50.986;5.826;2023-05-03T10:33:42;0.95;;;0.57;;
26562;SDS011;14217;50.986;5.826;2023-05-03T10:38:44;1.27;;;0.70;;
26562;SDS011;14217;50.986;5.826;2023-05-03T10:43:47;2.40;;;0.88;;
26562;SDS011;14217;50.986;5.826;2023-05-03T10:49:02;1.92;;;0.70;;
26562;SDS011;14217;50.986;5.826;2023-05-03T10:54:18;2.15;;;0.70;;
26562;SDS011;14217;50.986;5.826;2023-05-03T10:59:21;2.00;;;0.85;;
26562;SDS011;14217;50.986;5.826;2023-05-03T11:04:28;2.38;;;0.90;;
26562;SDS011;14217;50.986;5.826;2023-05-03T11:09:37;1.77;;;0.93;;
26562;SDS011;14217;50.986;5.826;2023-05-03T11:14:40;1.33;;;0.60;;
26562;SDS011;14217;50.986;5.826;2023-05-03T11:19:43;0.57;;;0.45;;
26562;SDS011;14217;50.986;5.826;2023-05-03T11:24:45;0.45;;;0.38;;
26562;SDS011;14217;50.986;5.826;2023-05-03T11:29:47;0.98;;;0.82;;
26562;SDS011;14217;50.986;5.826;2023-05-03T11:34:50;0.40;;;0.40;;
26562;SDS011;14217;50.986;5.826;2023-05-03T11:39:52;0.57;;;0.57;;
26562;SDS011;14217;50.986;5.826;2023-05-03T11:44:54;0.43;;;0.40;;
26562;SDS011;14217;50.986;5.826;2023-05-03T11:49:56;0.75;;;0.60;;
26562;SDS011;14217;50.986;5.826;2023-05-03T11:54:59;1.15;;;0.77;;
26562;SDS011;14217;50.986;5.826;2023-05-03T12:00:14;2.15;;;0.80;;
26562;SDS011;14217;50.986;5.826;2023-05-03T12:05:22;1.48;;;1.25;;
26562;SDS011;14217;50.986;5.826;2023-05-03T12:10:29;0.95;;;0.80;;
26562;SDS011;14217;50.986;5.826;2023-05-03T12:15:34;2.13;;;0.70;;
26562;SDS011;14217;50.986;5.826;2023-05-03T12:20:41;1.48;;;0.55;;
26562;SDS011;14217;50.986;5.826;2023-05-03T12:26:03;0.77;;;0.63;;
26562;SDS011;14217;50.986;5.826;2023-05-03T12:31:06;3.55;;;1.00;;
26562;SDS011;14217;50.986;5.826;2023-05-03T12:36:08;1.33;;;0.40;;
26562;SDS011;14217;50.986;5.826;2023-05-03T12:41:15;1.75;;;0.73;;
26562;SDS011;14217;50.986;5.826;2023-05-03T12:46:37;2.08;;;1.10;;
26562;SDS011;14217;50.986;5.826;2023-05-03T12:51:40;3.20;;;0.93;;
26562;SDS011;14217;50.986;5.826;2023-05-03T12:56:43;2.03;;;1.23;;
26562;SDS011;14217;50.986;5.826;2023-05-03T13:01:48;1.23;;;0.90;;
26562;SDS011;14217;50.986;5.826;2023-05-03T13:06:54;4.35;;;1.50;;
26562;SDS011;14217;50.986;5.826;2023-05-03T13:12:00;2.88;;;1.10;;
26562;SDS011;14217;50.986;5.826;2023-05-03T13:17:02;1.63;;;0.80;;
26562;SDS011;14217;50.986;5.826;2023-05-03T13:22:05;2.15;;;1.38;;
26562;SDS011;14217;50.986;5.826;2023-05-03T13:27:07;2.33;;;1.10;;
26562;SDS011;14217;50.986;5.826;2023-05-03T13:32:11;2.15;;;1.08;;
26562;SDS011;14217;50.986;5.826;2023-05-03T13:37:14;1.90;;;1.00;;
26562;SDS011;14217;50.986;5.826;2023-05-03T13:42:19;1.42;;;1.23;;
26562;SDS011;14217;50.986;5.826;2023-05-03T13:47:21;2.00;;;0.90;;
26562;SDS011;14217;50.986;5.826;2023-05-03T13:52:24;2.40;;;1.00;;
26562;SDS011;14217;50.986;5.826;2023-05-03T13:57:26;1.30;;;1.00;;
26562;SDS011;14217;50.986;5.826;2023-05-03T14:02:29;2.50;;;0.80;;
26562;SDS011;14217;50.986;5.826;2023-05-03T14:07:34;3.03;;;1.17;;
26562;SDS011;14217;50.986;5.826;2023-05-03T14:12:38;1.05;;;0.73;;
26562;SDS011;14217;50.986;5.826;2023-05-03T14:17:50;0.68;;;0.63;;
26562;SDS011;14217;50.986;5.826;2023-05-03T14:22:59;1.65;;;0.65;;
26562;SDS011;14217;50.986;5.826;2023-05-03T14:28:02;1.58;;;0.75;;
26562;SDS011;14217;50.986;5.826;2023-05-03T14:33:06;1.83;;;0.93;;
26562;SDS011;14217;50.986;5.826;2023-05-03T14:38:11;1.75;;;0.90;;
26562;SDS011;14217;50.986;5.826;2023-05-03T14:43:15;3.05;;;0.65;;
26562;SDS011;14217;50.986;5.826;2023-05-03T14:48:17;2.20;;;0.80;;
26562;SDS011;14217;50.986;5.826;2023-05-03T14:53:21;1.83;;;1.00;;
26562;SDS011;14217;50.986;5.826;2023-05-03T14:58:24;1.80;;;0.70;;
26562;SDS011;14217;50.986;5.826;2023-05-03T15:03:28;1.05;;;0.73;;
26562;SDS011;14217;50.986;5.826;2023-05-03T15:08:31;1.50;;;0.50;;
26562;SDS011;14217;50.986;5.826;2023-05-03T15:13:34;1.13;;;0.50;;
26562;SDS011;14217;50.986;5.826;2023-05-03T15:18:37;2.72;;;0.82;;
26562;SDS011;14217;50.986;5.826;2023-05-03T15:23:40;5.38;;;0.82;;
26562;SDS011;14217;50.986;5.826;2023-05-03T15:28:44;1.95;;;1.00;;
26562;SDS011;14217;50.986;5.826;2023-05-03T15:33:46;1.90;;;1.17;;
26562;SDS011;14217;50.986;5.826;2023-05-03T15:38:48;1.92;;;0.77;;
26562;SDS011;14217;50.986;5.826;2023-05-03T15:43:51;1.23;;;0.80;;
26562;SDS011;14217;50.986;5.826;2023-05-03T15:48:53;1.95;;;0.63;;
26562;SDS011;14217;50.986;5.826;2023-05-03T15:53:55;1.48;;;0.70;;
26562;SDS011;14217;50.986;5.826;2023-05-03T15:58:57;1.05;;;0.80;;
26562;SDS011;14217;50.986;5.826;2023-05-03T16:03:59;1.35;;;0.73;;
26562;SDS011;14217;50.986;5.826;2023-05-03T16:09:01;0.93;;;0.80;;
26562;SDS011;14217;50.986;5.826;2023-05-03T16:14:04;1.92;;;0.70;;
26562;SDS011;14217;50.986;5.826;2023-05-03T16:19:09;1.35;;;0.75;;
26562;SDS011;14217;50.986;5.826;2023-05-03T16:24:12;1.10;;;1.00;;
26562;SDS011;14217;50.986;5.826;2023-05-03T16:29:14;1.23;;;0.80;;
26562;SDS011;14217;50.986;5.826;2023-05-03T16:34:17;0.88;;;0.82;;
26562;SDS011;14217;50.986;5.826;2023-05-03T16:39:19;2.97;;;1.35;;
26562;SDS011;14217;50.986;5.826;2023-05-03T16:44:21;2.20;;;1.58;;
26562;SDS011;14217;50.986;5.826;2023-05-03T16:49:23;1.15;;;1.00;;
26562;SDS011;14217;50.986;5.826;2023-05-03T16:54:26;3.13;;;0.80;;
26562;SDS011;14217;50.986;5.826;2023-05-03T16:59:28;1.45;;;0.88;;
26562;SDS011;14217;50.986;5.826;2023-05-03T17:04:30;2.15;;;1.05;;
26562;SDS011;14217;50.986;5.826;2023-05-03T17:09:32;2.15;;;0.88;;
26562;SDS011;14217;50.986;5.826;2023-05-03T17:14:34;1.63;;;0.88;;
26562;SDS011;14217;50.986;5.826;2023-05-03T17:19:36;1.90;;;0.90;;
26562;SDS011;14217;50.986;5.826;2023-05-03T17:24:39;1.35;;;0.80;;
26562;SDS011;14217;50.986;5.826;2023-05-03T17:29:41;2.50;;;0.93;;
26562;SDS011;14217;50.986;5.826;2023-05-03T17:34:43;3.33;;;1.05;;
26562;SDS011;14217;50.986;5.826;2023-05-03T17:39:45;2.22;;;0.80;;
26562;SDS011;14217;50.986;5.826;2023-05-03T17:44:49;1.20;;;0.68;;
26562;SDS011;14217;50.986;5.826;2023-05-03T17:49:52;1.15;;;0.75;;
26562;SDS011;14217;50.986;5.826;2023-05-03T17:54:55;5.07;;;0.90;;
26562;SDS011;14217;50.986;5.826;2023-05-03T17:59:57;1.40;;;0.77;;
26562;SDS011;14217;50.986;5.826;2023-05-03T18:04:59;1.50;;;1.02;;
26562;SDS011;14217;50.986;5.826;2023-05-03T18:10:02;2.45;;;0.90;;
26562;SDS011;14217;50.986;5.826;2023-05-03T18:15:06;2.35;;;0.88;;
26562;SDS011;14217;50.986;5.826;2023-05-03T18:20:09;2.83;;;1.02;;
26562;SDS011;14217;50.986;5.826;2023-05-03T18:25:12;1.92;;;0.60;;
26562;SDS011;14217;50.986;5.826;2023-05-03T18:30:14;5.20;;;1.30;;
26562;SDS011;14217;50.986;5.826;2023-05-03T18:35:16;6.63;;;0.70;;
26562;SDS011;14217;50.986;5.826;2023-05-03T18:40:19;3.00;;;1.15;;
26562;SDS011;14217;50.986;5.826;2023-05-03T18:45:21;1.70;;;0.95;;
26562;SDS011;14217;50.986;5.826;2023-05-03T18:50:23;1.52;;;0.70;;
26562;SDS011;14217;50.986;5.826;2023-05-03T18:55:25;1.95;;;0.88;;
26562;SDS011;14217;50.986;5.826;2023-05-03T19:00:27;1.88;;;0.90;;
26562;SDS011;14217;50.986;5.826;2023-05-03T19:05:30;1.73;;;0.75;;
26562;SDS011;14217;50.986;5.826;2023-05-03T19:10:32;5.78;;;0.85;;
26562;SDS011;14217;50.986;5.826;2023-05-03T19:15:34;2.97;;;0.88;;
26562;SDS011;14217;50.986;5.826;2023-05-03T19:20:36;1.98;;;0.82;;
26562;SDS011;14217;50.986;5.826;2023-05-03T19:25:39;1.05;;;0.70;;
26562;SDS011;14217;50.986;5.826;2023-05-03T19:30:41;1.42;;;0.73;;
26562;SDS011;14217;50.986;5.826;2023-05-03T19:35:46;0.77;;;0.60;;
26562;SDS011;14217;50.986;5.826;2023-05-03T19:40:55;1.38;;;0.60;;
26562;SDS011;14217;50.986;5.826;2023-05-03T19:45:58;3.15;;;0.80;;
26562;SDS011;14217;50.986;5.826;2023-05-03T19:51:00;1.92;;;0.65;;
26562;SDS011;14217;50.986;5.826;2023-05-03T19:56:06;0.98;;;0.60;;
26562;SDS011;14217;50.986;5.826;2023-05-03T20:01:09;1.92;;;0.85;;
26562;SDS011;14217;50.986;5.826;2023-05-03T20:06:11;5.75;;;0.60;;
26562;SDS011;14217;50.986;5.826;2023-05-03T20:11:14;1.92;;;0.60;;
26562;SDS011;14217;50.986;5.826;2023-05-03T20:16:16;1.65;;;0.40;;
26562;SDS011;14217;50.986;5.826;2023-05-03T20:21:21;2.08;;;0.60;;
26562;SDS011;14217;50.986;5.826;2023-05-03T20:26:23;2.05;;;0.57;;
26562;SDS011;14217;50.986;5.826;2023-05-03T20:31:26;4.35;;;0.80;;
26562;SDS011;14217;50.986;5.826;2023-05-03T20:36:28;1.25;;;0.70;;
26562;SDS011;14217;50.986;5.826;2023-05-03T20:41:30;0.85;;;0.73;;
26562;SDS011;14217;50.986;5.826;2023-05-03T20:46:32;1.25;;;0.60;;
26562;SDS011;14217;50.986;5.826;2023-05-03T20:51:35;1.30;;;0.50;;
26562;SDS011;14217;50.986;5.826;2023-05-03T20:56:37;1.35;;;0.85;;
26562;SDS011;14217;50.986;5.826;2023-05-03T21:01:39;6.93;;;0.70;;
26562;SDS011;14217;50.986;5.826;2023-05-03T21:06:41;0.57;;;0.47;;
26562;SDS011;14217;50.986;5.826;2023-05-03T21:11:45;4.35;;;0.63;;
26562;SDS011;14217;50.986;5.826;2023-05-03T21:16:47;1.33;;;0.55;;
26562;SDS011;14217;50.986;5.826;2023-05-03T21:21:49;1.20;;;0.45;;
26562;SDS011;14217;50.986;5.826;2023-05-03T21:26:51;1.65;;;0.70;;
26562;SDS011;14217;50.986;5.826;2023-05-03T21:31:53;1.83;;;0.70;;
26562;SDS011;14217;50.986;5.826;2023-05-03T21:36:55;1.13;;;0.95;;
26562;SDS011;14217;50.986;5.826;2023-05-03T21:41:57;0.98;;;0.63;;
26562;SDS011;14217;50.986;5.826;2023-05-03T21:47:00;0.50;;;0.50;;
26562;SDS011;14217;50.986;5.826;2023-05-03T21:52:03;2.70;;;0.47;;
26562;SDS011;14217;50.986;5.826;2023-05-03T21:57:06;1.75;;;0.50;;
26562;SDS011;14217;50.986;5.826;2023-05-03T22:02:08;1.02;;;0.60;;
26562;SDS011;14217;50.986;5.826;2023-05-03T22:07:10;0.65;;;0.40;;
26562;SDS011;14217;50.986;5.826;2023-05-03T22:12:12;0.93;;;0.50;;
26562;SDS011;14217;50.986;5.826;2023-05-03T22:17:25;2.25;;;0.68;;
26562;SDS011;14217;50.986;5.826;2023-05-03T22:22:27;1.33;;;0.50;;
26562;SDS011;14217;50.986;5.826;2023-05-03T22:27:29;5.97;;;0.50;;
26562;SDS011;14217;50.986;5.826;2023-05-03T22:32:31;2.78;;;0.63;;
26562;SDS011;14217;50.986;5.826;2023-05-03T22:37:33;0.70;;;0.40;;
26562;SDS011;14217;50.986;5.826;2023-05-03T22:42:35;1.15;;;0.50;;
26562;SDS011;14217;50.986;5.826;2023-05-03T22:47:38;1.63;;;0.43;;
26562;SDS011;14217;50.986;5.826;2023-05-03T22:52:40;0.38;;;0.35;;
26562;SDS011;14217;50.986;5.826;2023-05-03T22:57:42;0.75;;;0.32;;
26562;SDS011;14217;50.986;5.826;2023-05-03T23:02:44;0.40;;;0.30;;
26562;SDS011;14217;50.986;5.826;2023-05-03T23:07:47;0.80;;;0.65;;
26562;SDS011;14217;50.986;5.826;2023-05-03T23:12:49;0.90;;;0.32;;
26562;SDS011;14217;50.986;5.826;2023-05-03T23:17:51;1.05;;;0.77;;
26562;SDS011;14217;50.986;5.826;2023-05-03T23:22:53;0.60;;;0.38;;
26562;SDS011;14217;50.986;5.826;2023-05-03T23:27:56;1.45;;;0.50;;
26562;SDS011;14217;50.986;5.826;2023-05-03T23:32:58;0.47;;;0.38;;
26562;SDS011;14217;50.986;5.826;2023-05-03T23:38:01;0.73;;;0.70;;
26562;SDS011;14217;50.986;5.826;2023-05-03T23:43:03;1.77;;;0.60;;
26562;SDS011;14217;50.986;5.826;2023-05-03T23:48:05;2.67;;;0.47;;
26562;SDS011;14217;50.986;5.826;2023-05-03T23:53:07;1.08;;;0.40;;
26562;SDS011;14217;50.986;5.826;2023-05-03T23:58:09;0.52;;;0.50;;
